Largo — PFNC — position and weather

sailwx.info

Track history (hours):
 
Tides and Currents Weather Stations Pressure Air Temp Water Temp Dewpoint Dewpoint Depression Visibility Wind Speed Wind Dir Waves Ship Positions

Largo

Last reported at 2016-May-28 04:27 UTC. Time now 2016-May-29 15:27 UTC.
Position N 37°14' E 000°35'.

Length 91 m; draft 6.5 m.

Type: Cargo ship. MMSI: 245645000.

Date/timePositionNaut miles runAvg speedWind from/ knotsBaromVisibWave heightAir tempDewpointWater temp
2016-May-28 04:27N 37°14' E 000°35'8 8.4
2016-May-28 03:31N 37°20' E 000°29'35 8.6
2016-May-27 23:28N 37°48' E 000°02'8 8.6
2016-May-27 22:30N 37°54' W 000°04'8 8.6
2016-May-27 21:33N 38°01' W 000°10'  
2016-May-25 14:26N 37°31' E 000°20'75 2.3
2016-May-24 05:33N 36°32' E 001°19'0 0.0
2016-May-24 03:34N 36°32' E 001°19'34 1.1
2016-May-22 19:33N 36°25' E 000°37'9 9.0
2016-May-22 18:33N 36°21' E 000°27'9 8.9
2016-May-22 17:33N 36°16' E 000°18'9 8.9
2016-May-22 16:33N 36°10' E 000°10'9 8.6
2016-May-22 15:29N 36°02' E 000°04'6 3.1
2016-May-22 13:33N 35°56' E 000°05'0 0.0
2016-May-22 12:27N 35°56' E 000°05'0 0.0
2016-May-22 11:33N 35°56' E 000°05'0 0.0
2016-May-22 00:12N 35°56' E 000°05'0 0.0
2016-May-21 23:27N 35°56' E 000°05'0 0.0
2016-May-21 17:32N 35°56' E 000°05'0 0.0
2016-May-21 16:26N 35°56' E 000°05'0 0.0
2016-May-19 21:15N 35°56' E 000°05'24 7.5
2016-May-19 18:04N 36°01' W 000°25'5 8.3
2016-May-19 17:26N 35°57' W 000°29'15 3.1
2016-May-19 12:27N 35°44' W 000°39'0 0.0
2016-May-19 11:09N 35°44' W 000°39'0 0.0
2016-May-19 10:20N 35°44' W 000°39'0 0.0
2016-May-19 09:26N 35°44' W 000°39'  
Track history (hours):
 
Tides and Currents Weather Stations Pressure Air Temp Water Temp Dewpoint Dewpoint Depression Visibility Wind Speed Wind Dir Waves Ship Positions

Largo

Last reported at 2016-May-28 04:27 UTC. Time now 2016-May-29 15:27 UTC.
Position N 37°14' E 000°35'.

Length 91 m; draft 6.5 m.

Type: Cargo ship. MMSI: 245645000.

Date/timePositionNaut miles runAvg speedWind from/ knotsBaromVisibWave heightAir tempDewpointWater temp
2016-May-28 04:27N 37°14' E 000°35'8 8.4
2016-May-28 03:31N 37°20' E 000°29'35 8.6
2016-May-27 23:28N 37°48' E 000°02'8 8.6
2016-May-27 22:30N 37°54' W 000°04'8 8.6
2016-May-27 21:33N 38°01' W 000°10'  
2016-May-25 14:26N 37°31' E 000°20'75 2.3
2016-May-24 05:33N 36°32' E 001°19'0 0.0
2016-May-24 03:34N 36°32' E 001°19'34 1.1
2016-May-22 19:33N 36°25' E 000°37'9 9.0
2016-May-22 18:33N 36°21' E 000°27'9 8.9
2016-May-22 17:33N 36°16' E 000°18'9 8.9
2016-May-22 16:33N 36°10' E 000°10'9 8.6
2016-May-22 15:29N 36°02' E 000°04'6 3.1
2016-May-22 13:33N 35°56' E 000°05'0 0.0
2016-May-22 12:27N 35°56' E 000°05'0 0.0
2016-May-22 11:33N 35°56' E 000°05'0 0.0
2016-May-22 00:12N 35°56' E 000°05'0 0.0
2016-May-21 23:27N 35°56' E 000°05'0 0.0
2016-May-21 17:32N 35°56' E 000°05'0 0.0
2016-May-21 16:26N 35°56' E 000°05'0 0.0
2016-May-19 21:15N 35°56' E 000°05'24 7.5
2016-May-19 18:04N 36°01' W 000°25'5 8.3
2016-May-19 17:26N 35°57' W 000°29'15 3.1
2016-May-19 12:27N 35°44' W 000°39'0 0.0
2016-May-19 11:09N 35°44' W 000°39'0 0.0
2016-May-19 10:20N 35°44' W 000°39'0 0.0
2016-May-19 09:26N 35°44' W 000°39'  

Dump ship's entire track history